WEATHER DATA

YESTERDAY
Time Temp. Dewp. Hum. Wind dir Wind speed Wind gust Bar. 1h Prec. 24h Prec.
00:02 2.4 -0.9 78 2 2.2 3.1 1024.1 0.0000 0.0000
00:12 2.1 -0.9 80 355 2.5 3.3 1024.1 0.0000 0.0000
00:23 1.8 -1 81 356 2.5 3.1 1024.1 0.0000 0.0000
00:33 1.5 -1.1 82 356 2.2 2.8 1024.1 0.0000 0.0000
00:43 1.2 -1.2 83 358 2.5 3.1 1024.1 0.0000 0.0000
00:53 1.1 -1.1 84 358 2.2 3.1 1024 0.0000 0.0000
01:03 1.1 -1 85 354 1.1 2.2 1023.9 0.0000 0.0000
01:13 1.1 -1.1 84 354 1.4 2.2 1023.8 0.0000 0.0000
01:23 1.1 -1.1 84 350 1.1 2.2 1023.8 0.0000 0.0000
01:34 1.2 -1.2 83 357 1.9 2.5 1023.8 0.0000 0.0000
01:44 1.2 -1.2 83 356 1.4 2.2 1023.8 0.0000 0.0000
01:53 1.2 -1.1 84 356 1.7 2.8 1023.7 0.0000 0.0000
02:03 1.2 -0.8 86 357 1.9 2.5 1023.7 0.0000 0.0000
02:14 1.2 -0.6 87 358 1.7 2.5 1023.5 0.0000 0.0000
02:24 1.2 -0.5 88 358 1.7 2.2 1023.4 0.0000 0.0000
02:34 1.3 -0.4 88 2 1.7 2.2 1023.2 0.0000 0.0000
02:44 1.3 -0.4 88 357 1.9 2.5 1023.1 0.0000 0.0000
02:54 1.2 -0.5 88 358 1.7 2.5 1023.1 0.0000 0.0000
03:04 1.2 -0.5 88 354 1.9 2.5 1023 0.0000 0.0000
03:14 1.1 -0.4 89 358 1.7 2.2 1022.9 0.0000 0.0000
03:24 1.2 -0.4 89 352 1.9 2.5 1022.9 0.0000 0.0000
03:34 1.1 -0.6 88 353 1.1 1.9 1022.9 0.0000 0.0000
03:44 1.2 -0.4 89 340 1.1 1.9 1022.8 0.0000 0.0000
03:55 1.1 -0.4 89 345 1.1 1.7 1022.8 0.0000 0.0000
04:05 1.1 -0.4 89 353 1.4 1.9 1022.8 0.0000 0.0000
04:15 1.2 -0.4 89 353 1.4 2.2 1022.6 0.0000 0.0000
04:24 1.2 -0.4 89 348 1.4 2.5 1022.6 0.0000 0.0000
04:35 1 -0.5 89 352 1.4 1.9 1022.4 0.0000 0.0000
04:45 1 -0.5 89 2 1.4 1.9 1022.3 0.0000 0.0000
04:55 0.8 -0.7 89 352 1.1 1.7 1022.3 0.0000 0.0000
05:05 0.7 -0.8 89 346 0.8 1.4 1022.3 0.0000 0.0000
05:16 0.6 -1 88 332 0.8 1.7 1022.3 0.0000 0.0000
05:25 0.4 -1.2 88 325 0.8 1.7 1022.3 0.0000 0.0000
05:35 0.3 -1.3 88 331 0.8 1.4 1022.1 0.0000 0.0000
05:46 0.2 -1.2 89 343 0.8 1.7 1022.2 0.0000 0.0000
05:56 0.2 -1.1 90 349 1.1 1.9 1022.2 0.0000 0.0000
06:06 0.2 -1 91 354 1.4 1.9 1022.1 0.0000 0.0000
06:16 0.1 -1.2 90 358 1.1 1.7 1022 0.0000 0.0000
06:26 0.1 -1.1 91 355 1.4 1.7 1021.9 0.0000 0.0000
06:36 0.2 -1 91 6 1.1 1.7 1022 0.0000 0.0000
06:46 0.1 -1.1 91 6 1.1 1.7 1022 0.0000 0.0000
06:57 0.1 -1.2 90 11 0.8 1.7 1021.9 0.0000 0.0000
07:07 0.1 -1.1 91 329 0.8 1.7 1022 0.0000 0.0000
07:16 0.2 -0.8 92 325 1.1 1.7 1022 0.0000 0.0000
07:26 0.5 -0.4 93 310 1.4 2.8 1022 0.0000 0.0000
07:37 0.8 -0.3 92 311 1.4 2.5 1022.1 0.0000 0.0000
07:47 1 -0.1 92 315 1.7 3.1 1022.1 0.0000 0.0000
07:57 1.3 0 91 319 2.2 3.6 1022 0.0000 0.0000
08:07 1.4 0 90 322 1.1 2.2 1022 0.0000 0.0000
08:17 1.4 -0.2 89 340 1.4 1.9 1022 0.0000 0.0000
08:27 1.4 -0.2 89 332 1.4 2.2 1022.1 0.0000 0.0000
08:37 1.8 0.8 93 260 1.7 3.6 1022 0.0000 0.0000
08:48 2.5 1.5 93 6 1.9 3.9 1021.9 0.0000 0.0000
08:57 3.3 1.8 90 354 2.2 3.9 1021.8 0.0000 0.0000
09:07 3.9 1.9 87 13 1.9 3.6 1021.8 0.0000 0.0000
09:18 4.5 0.8 77 1 1.9 3.6 1021.8 0.0000 0.0000
09:28 5.3 0.9 73 349 1.9 3.3 1021.7 0.0000 0.0000
09:38 6.1 1 70 344 2.5 5.3 1021.7 0.0000 0.0000
09:47 6.5 -0.2 62 347 2.5 4.2 1021.6 0.0000 0.0000
09:58 6.7 -0.4 60 2 2.2 3.3 1021.6 0.0000 0.0000
10:08 6.8 -0.2 61 270 1.4 2.8 1021.5 0.0000 0.0000
10:18 6.9 0.4 63 348 1.7 3.3 1021.4 0.0000 0.0000
10:28 7.3 -0.4 58 12 1.7 3.6 1021.4 0.0000 0.0000
10:38 7.6 -0.1 58 1.9 4.2 1021.3 0.0000 0.0000
10:48 7.8 0.3 59 71 1.1 3.6 1021.2 0.0000 0.0000
10:58 7.8 0.5 60 340 2.5 4.2 1021.1 0.0000 0.0000
11:09 8 0.5 59 347 2.5 3.9 1021 0.0000 0.0000
11:19 8 0.2 58 270 1.4 3.9 1020.9 0.0000 0.0000
11:29 8 0.2 58 202 1.4 3.3 1020.7 0.0000 0.0000
11:39 8.3 0.5 58 212 1.4 2.5 1020.6 0.0000 0.0000
11:49 8.5 -0.2 54 265 1.9 3.6 1020.5 0.0000 0.0000
11:59 8.6 -0.2 54 307 1.9 3.6 1020.4 0.0000 0.0000
12:09 8.6 -0.8 51 329 1.9 4.2 1020.5 0.0000 0.0000
12:20 8.7 -0.3 53 203 1.4 2.5 1020.4 0.0000 0.0000
12:29 8.8 -2.2 45 3 1.9 4.4 1020.2 0.0000 0.0000
12:39 9 -1 49 340 1.9 3.9 1020.2 0.0000 0.0000
12:49 9 -0.8 50 348 2.5 4.2 1020 0.0000 0.0000
13:00 9.1 -1.2 48 330 2.2 5.3 1020 0.0000 0.0000
13:10 9.2 -1.9 45 336 2.2 4.2 1019.8 0.0000 0.0000
13:19 9.2 -1.3 47 306 3.3 6.4 1019.6 0.0000 0.0000
13:30 9.2 -3 41 248 2.5 4.4 1019.5 0.0000 0.0000
13:40 9.2 -2.1 44 311 1.7 3.3 1019.3 0.0000 0.0000
13:50 9.5 -0.6 49 270 1.9 3.9 1019.1 0.0000 0.0000
14:00 9.8 -1.4 45 1 1.7 5.3 1018.9 0.0000 0.0000
14:10 10.1 -0.9 46 256 1.9 3.1 1018.8 0.0000 0.0000
14:20 10.3 0.3 50 351 2.2 4.4 1018.7 0.0000 0.0000
14:30 10.5 0.2 49 299 1.9 4.4 1018.6 0.0000 0.0000
14:41 10.8 0 47 253 1.9 4.4 1018.5 0.0000 0.0000
14:51 11.1 -0.6 44 255 1.9 4.4 1018.4 0.0000 0.0000
15:00 11 -0.1 46 266 2.2 5.3 1018.3 0.0000 0.0000
15:10 10.8 -1.7 41 270 2.5 6.4 1018.3 0.0000 0.0000
15:21 10.7 -0.1 47 254 2.5 5.6 1018.1 0.0000 0.0000
15:31 10.7 1.8 54 260 2.8 6.1 1018 0.0000 0.0000
15:41 10.6 1.4 53 244 3.9 6.1 1017.9 0.0000 0.0000
15:51 10.4 1.8 55 276 1.9 3.9 1017.9 0.0000 0.0000
16:01 10 1.6 56 287 2.2 4.7 1017.7 0.0000 0.0000
16:11 9.7 2.3 60 301 2.2 5 1017.7 0.0000 0.0000
16:21 9.1 2.7 64 288 1.9 4.2 1017.7 0.0000 0.0000
16:32 8.6 3 68 257 2.5 4.2 1017.5 0.0000 0.0000
16:41 8.2 3.5 72 245 2.5 4.4 1017.4 0.0000 0.0000
16:51 8 3.5 73 250 2.8 4.2 1017.2 0.0000 0.0000
17:02 8.1 3.6 73 257 2.2 5 1017.1 0.0000 0.0000
17:12 8 4 76 257 2.5 4.7 1016.9 0.0000 0.0000
17:22 8 4.4 78 249 3.1 5.6 1016.8 0.0000 0.0000
17:32 7.8 4.9 82 246 3.1 5.3 1016.5 0.0000 0.0000
17:42 7.8 4.6 80 245 3.1 4.7 1016.3 0.0000 0.0000
17:52 8 4.4 78 247 2.2 4.2 1016 0.0000 0.0000
18:02 8 4.2 77 246 3.1 5.6 1015.9 0.0000 0.0000
18:12 8 4.4 78 252 2.2 4.4 1015.7 0.0000 0.0000
18:23 8 4.6 79 241 3.1 5.6 1015.5 0.0000 0.0000
18:32 8 4.8 80 248 2.2 3.9 1015.3 0.0000 0.0000
18:43 8 5.1 82 249 3.1 5 1015.3 0.0000 0.0000
18:53 8 5.5 84 244 3.1 5.3 1015.1 0.0000 0.0000
19:04 8 5.8 86 252 2.2 4.2 1015 0.1110 0.1000
19:06 7.9 5.7 86 257 1.9 3.9 1015 0.3340 0.3000
19:17 7.9 6.4 90 337 2.2 3.9 1015 1.0020 1.0000
19:27 7.8 6.6 92 333 2.8 4.4 1015 1.5590 1.6000
19:37 7.8 6.6 92 340 3.1 4.7 1014.9 1.5590 1.6000
19:46 7.8 6.4 91 341 5 7.5 1014.8 1.6700 1.7000
19:57 7.7 6.3 91 346 4.4 7.2 1014.8 1.5590 1.7000
20:07 7.7 6 89 347 5.8 8.1 1014.8 1.0020 1.7000
20:17 7.5 5.6 88 351 5.3 7.8 1014.8 0.1110 1.7000
20:27 7.3 5.4 88 349 4.7 6.9 1014.8 0.1110 1.7000
20:37 7.2 5.3 88 350 4.4 6.1 1014.8 0.0000 1.7000
20:47 7.1 4.9 86 348 3.9 5 1014.8 0.0000 1.7000
20:57 7 4.7 85 345 3.9 5 1014.7 0.0000 1.7000
21:08 6.8 4.1 83 347 5 7.5 1014.8 0.0000 1.7000
21:18 6.6 3.9 83 346 4.2 5.8 1014.8 0.0000 1.7000
21:27 6.2 3.7 84 344 3.9 5.3 1014.9 0.0000 1.7000
21:38 5.9 3.4 84 344 2.8 3.9 1014.8 0.0000 1.7000
21:48 5.5 3.2 85 339 2.2 3.3 1014.8 0.0000 1.7000
21:58 5.2 3.1 86 344 2.2 3.1 1014.8 0.0000 1.7000
22:08 5 3.5 90 347 3.3 5.6 1014.9 0.0000 1.7000
22:19 5.2 3.5 89 351 4.2 5.6 1014.8 0.0000 1.7000
22:28 5.1 3.4 89 348 3.9 5.8 1014.8 0.0000 1.7000
22:38 5 3.3 89 346 2.8 3.6 1014.7 0.0000 1.7000
22:48 4.8 3 88 341 2.5 3.6 1014.6 0.0000 1.7000
22:59 4.7 2.9 88 343 2.5 4.7 1014.6 0.0000 1.7000
23:09 4.5 2.8 89 348 2.8 3.9 1014.5 0.0000 1.7000
23:18 4.4 2.9 90 346 1.9 3.3 1014.4 0.0000 1.7000
23:29 4.4 2.9 90 339 1.4 2.2 1014.3 0.0000 1.7000
23:39 4.5 3 90 315 0.8 1.7 1014.2 0.0000 1.7000
23:49 4.5 3 90 317 0.8 1.9 1014.2 0.0000 1.7000

DAY STATISTIC

2024-04-23
TEMPERATURE
AVERAGE
5.2
HIGH
11.1
14:51
LOW
0.1
06:16
PRESSURE
AVERAGE
1019.5
HIGH
1024.1
00:02
LOW
1014.2
23:39
DEWPOINT
AVERAGE
1.1
HIGH
6.6
19:27
LOW
-3.0
13:30
HUMIDITY
AVERAGE
77
HIGH
93
07:26
LOW
41
13:30
WIND SPEED
AVERAGE
2.2
HIGH
5.8
20:07
WIND GUST
AVERAGE
3.7
HIGH
8.1
20:07
WIND DIRECTION
PREVAILING
N
56.6%
N
56.6
NE
0.0
E
0.7
SE
0.0
S
1.4
SW
6.3
W
18.2
NW
16.1
PRECIPITATION
RAIN HOUR
1.7
RAIN DAY
1.7
TEMPERATURE (°C)
LOW
0.1
HIGH
11.1
AVERAGE
5.2
PRESSURE (hpa)
LOW
1014.2
HIGH
1024.1
AVERAGE
1019.5
DEVICE